sensor_id;sensor_type;location;lat;lon;timestamp;pressure;altitude;pressure_sealevel;temperature;humidity
43147;BME280;28752;48.266;7.402;2022-10-19T00:01:11;100270.22;;;16.55;98.07
43147;BME280;28752;48.266;7.402;2022-10-19T00:03:37;100280.63;;;16.66;97.67
43147;BME280;28752;48.266;7.402;2022-10-19T00:06:17;100285.59;;;16.52;99.41
43147;BME280;28752;48.266;7.402;2022-10-19T00:08:43;100285.75;;;16.43;99.47
43147;BME280;28752;48.266;7.402;2022-10-19T00:11:10;100281.56;;;16.40;99.62
43147;BME280;28752;48.266;7.402;2022-10-19T00:13:36;100272.19;;;16.28;100.00
43147;BME280;28752;48.266;7.402;2022-10-19T00:16:10;100280.19;;;16.28;100.00
43147;BME280;28752;48.266;7.402;2022-10-19T00:18:36;100279.00;;;16.22;100.00
43147;BME280;28752;48.266;7.402;2022-10-19T00:21:04;100282.47;;;16.14;100.00
43147;BME280;28752;48.266;7.402;2022-10-19T00:23:29;100277.41;;;16.03;100.00
43147;BME280;28752;48.266;7.402;2022-10-19T00:25:55;100279.34;;;15.85;100.00
43147;BME280;28752;48.266;7.402;2022-10-19T00:28:21;100284.03;;;15.91;100.00
43147;BME280;28752;48.266;7.402;2022-10-19T00:30:46;100275.91;;;15.74;100.00
43147;BME280;28752;48.266;7.402;2022-10-19T00:33:12;100272.06;;;15.69;100.00
43147;BME280;28752;48.266;7.402;2022-10-19T00:35:40;100286.06;;;15.71;100.00
43147;BME280;28752;48.266;7.402;2022-10-19T00:38:05;100280.78;;;15.53;100.00
43147;BME280;28752;48.266;7.402;2022-10-19T00:40:38;100282.72;;;15.42;100.00
43147;BME280;28752;48.266;7.402;2022-10-19T00:43:08;100283.91;;;15.40;100.00
43147;BME280;28752;48.266;7.402;2022-10-19T00:45:34;100283.34;;;15.36;100.00
43147;BME280;28752;48.266;7.402;2022-10-19T00:47:59;100275.78;;;15.23;100.00
43147;BME280;28752;48.266;7.402;2022-10-19T00:50:25;100289.09;;;15.23;100.00
43147;BME280;28752;48.266;7.402;2022-10-19T00:52:50;100291.25;;;15.20;100.00
43147;BME280;28752;48.266;7.402;2022-10-19T00:55:15;100292.59;;;15.24;100.00
43147;BME280;28752;48.266;7.402;2022-10-19T00:57:41;100295.22;;;15.16;100.00
43147;BME280;28752;48.266;7.402;2022-10-19T01:00:07;100292.16;;;15.10;100.00
43147;BME280;28752;48.266;7.402;2022-10-19T01:02:34;100294.66;;;15.12;100.00
43147;BME280;28752;48.266;7.402;2022-10-19T01:04:59;100291.13;;;15.03;100.00
43147;BME280;28752;48.266;7.402;2022-10-19T01:07:25;100291.13;;;15.03;100.00
43147;BME280;28752;48.266;7.402;2022-10-19T01:09:52;100287.03;;;14.91;100.00
43147;BME280;28752;48.266;7.402;2022-10-19T01:12:50;100293.63;;;14.87;100.00
43147;BME280;28752;48.266;7.402;2022-10-19T01:15:30;100286.94;;;14.83;100.00
43147;BME280;28752;48.266;7.402;2022-10-19T01:18:22;100287.22;;;14.80;100.00
43147;BME280;28752;48.266;7.402;2022-10-19T01:29:22;100266.00;;;14.70;100.00
43147;BME280;28752;48.266;7.402;2022-10-19T01:31:56;100270.31;;;14.71;100.00
43147;BME280;28752;48.266;7.402;2022-10-19T01:35:01;100272.47;;;14.67;100.00
43147;BME280;28752;48.266;7.402;2022-10-19T01:37:50;100266.75;;;14.62;100.00
43147;BME280;28752;48.266;7.402;2022-10-19T01:40:30;100264.94;;;14.53;100.00
43147;BME280;28752;48.266;7.402;2022-10-19T01:43:18;100267.09;;;14.49;100.00
43147;BME280;28752;48.266;7.402;2022-10-19T01:45:52;100261.06;;;14.47;100.00
43147;BME280;28752;48.266;7.402;2022-10-19T01:48:33;100266.16;;;14.40;100.00
43147;BME280;28752;48.266;7.402;2022-10-19T01:51:03;100252.97;;;14.39;100.00
43147;BME280;28752;48.266;7.402;2022-10-19T01:53:37;100243.84;;;14.42;100.00
43147;BME280;28752;48.266;7.402;2022-10-19T01:56:04;100242.09;;;14.32;100.00
43147;BME280;28752;48.266;7.402;2022-10-19T01:58:34;100250.47;;;14.37;100.00
43147;BME280;28752;48.266;7.402;2022-10-19T02:01:03;100253.84;;;14.39;100.00
43147;BME280;28752;48.266;7.402;2022-10-19T02:03:30;100241.81;;;14.35;100.00
43147;BME280;28752;48.266;7.402;2022-10-19T02:05:58;100243.78;;;14.33;100.00
43147;BME280;28752;48.266;7.402;2022-10-19T02:08:28;100252.75;;;14.32;100.00
43147;BME280;28752;48.266;7.402;2022-10-19T02:10:54;100257.56;;;14.29;100.00
43147;BME280;28752;48.266;7.402;2022-10-19T02:13:22;100250.41;;;14.29;100.00
43147;BME280;28752;48.266;7.402;2022-10-19T02:15:52;100245.50;;;14.25;100.00
43147;BME280;28752;48.266;7.402;2022-10-19T02:18:23;100245.38;;;14.26;100.00
43147;BME280;28752;48.266;7.402;2022-10-19T02:20:50;100236.28;;;14.19;100.00
43147;BME280;28752;48.266;7.402;2022-10-19T02:23:18;100246.78;;;14.20;100.00
43147;BME280;28752;48.266;7.402;2022-10-19T02:25:45;100235.84;;;14.24;100.00
43147;BME280;28752;48.266;7.402;2022-10-19T02:28:10;100239.63;;;14.21;100.00
43147;BME280;28752;48.266;7.402;2022-10-19T02:30:36;100232.38;;;14.13;100.00
43147;BME280;28752;48.266;7.402;2022-10-19T02:33:02;100232.09;;;14.16;100.00
43147;BME280;28752;48.266;7.402;2022-10-19T02:35:27;100240.53;;;14.12;100.00
43147;BME280;28752;48.266;7.402;2022-10-19T02:37:53;100239.19;;;14.08;100.00
43147;BME280;28752;48.266;7.402;2022-10-19T02:40:22;100233.75;;;13.99;100.00
43147;BME280;28752;48.266;7.402;2022-10-19T02:42:52;100241.72;;;13.99;100.00
43147;BME280;28752;48.266;7.402;2022-10-19T02:45:42;100238.22;;;13.99;100.00
43147;BME280;28752;48.266;7.402;2022-10-19T02:48:19;100236.75;;;13.86;100.00
43147;BME280;28752;48.266;7.402;2022-10-19T02:50:46;100225.53;;;13.83;100.00
43147;BME280;28752;48.266;7.402;2022-10-19T02:53:12;100234.84;;;13.79;100.00
43147;BME280;28752;48.266;7.402;2022-10-19T02:55:38;100232.19;;;13.69;100.00
43147;BME280;28752;48.266;7.402;2022-10-19T02:58:03;100228.03;;;13.66;100.00
43147;BME280;28752;48.266;7.402;2022-10-19T03:00:29;100235.97;;;13.76;100.00
43147;BME280;28752;48.266;7.402;2022-10-19T03:02:54;100224.28;;;13.87;100.00
43147;BME280;28752;48.266;7.402;2022-10-19T03:05:19;100225.66;;;13.91;100.00
43147;BME280;28752;48.266;7.402;2022-10-19T03:07:45;100224.78;;;14.00;100.00
43147;BME280;28752;48.266;7.402;2022-10-19T03:10:11;100220.97;;;14.03;100.00
43147;BME280;28752;48.266;7.402;2022-10-19T03:12:36;100228.53;;;14.08;100.00
43147;BME280;28752;48.266;7.402;2022-10-19T03:15:01;100219.53;;;14.09;100.00
43147;BME280;28752;48.266;7.402;2022-10-19T03:17:27;100230.66;;;14.22;100.00
43147;BME280;28752;48.266;7.402;2022-10-19T03:19:52;100228.69;;;14.24;100.00
43147;BME280;28752;48.266;7.402;2022-10-19T03:22:18;100233.97;;;14.34;100.00
43147;BME280;28752;48.266;7.402;2022-10-19T03:24:43;100220.56;;;14.44;100.00
43147;BME280;28752;48.266;7.402;2022-10-19T03:27:08;100208.81;;;14.54;100.00
43147;BME280;28752;48.266;7.402;2022-10-19T03:29:34;100216.50;;;14.67;100.00
43147;BME280;28752;48.266;7.402;2022-10-19T03:31:59;100205.53;;;14.70;100.00
43147;BME280;28752;48.266;7.402;2022-10-19T03:34:25;100200.72;;;14.74;100.00
43147;BME280;28752;48.266;7.402;2022-10-19T03:36:50;100206.00;;;14.92;100.00
43147;BME280;28752;48.266;7.402;2022-10-19T03:39:16;100202.06;;;14.96;100.00
43147;BME280;28752;48.266;7.402;2022-10-19T03:41:41;100190.25;;;14.99;100.00
43147;BME280;28752;48.266;7.402;2022-10-19T03:44:08;100198.97;;;15.09;100.00
43147;BME280;28752;48.266;7.402;2022-10-19T03:46:35;100194.88;;;14.97;100.00
43147;BME280;28752;48.266;7.402;2022-10-19T03:49:00;100199.44;;;15.04;100.00
43147;BME280;28752;48.266;7.402;2022-10-19T03:51:28;100194.41;;;15.01;100.00
43147;BME280;28752;48.266;7.402;2022-10-19T03:53:56;100196.75;;;15.04;100.00
43147;BME280;28752;48.266;7.402;2022-10-19T03:56:24;100189.97;;;15.10;100.00
43147;BME280;28752;48.266;7.402;2022-10-19T03:58:51;100201.63;;;15.09;100.00
43147;BME280;28752;48.266;7.402;2022-10-19T04:01:20;100193.78;;;15.07;100.00
43147;BME280;28752;48.266;7.402;2022-10-19T04:03:45;100197.19;;;15.18;100.00
43147;BME280;28752;48.266;7.402;2022-10-19T04:06:16;100206.56;;;15.22;100.00
43147;BME280;28752;48.266;7.402;2022-10-19T04:08:42;100206.25;;;15.25;100.00
43147;BME280;28752;48.266;7.402;2022-10-19T04:11:10;100214.09;;;15.26;100.00
43147;BME280;28752;48.266;7.402;2022-10-19T04:13:36;100208.75;;;15.26;100.00
43147;BME280;28752;48.266;7.402;2022-10-19T04:16:02;100218.59;;;15.26;100.00
43147;BME280;28752;48.266;7.402;2022-10-19T04:18:27;100204.78;;;15.31;100.00
43147;BME280;28752;48.266;7.402;2022-10-19T04:21:01;100198.25;;;15.25;100.00
43147;BME280;28752;48.266;7.402;2022-10-19T04:23:29;100209.56;;;15.19;100.00
43147;BME280;28752;48.266;7.402;2022-10-19T04:26:05;100207.34;;;15.14;100.00
43147;BME280;28752;48.266;7.402;2022-10-19T04:28:32;100201.13;;;15.05;100.00
43147;BME280;28752;48.266;7.402;2022-10-19T04:31:01;100200.22;;;14.97;100.00
43147;BME280;28752;48.266;7.402;2022-10-19T04:33:27;100195.50;;;14.90;100.00
43147;BME280;28752;48.266;7.402;2022-10-19T04:36:04;100190.41;;;14.97;100.00
43147;BME280;28752;48.266;7.402;2022-10-19T04:38:30;100190.88;;;14.92;100.00
43147;BME280;28752;48.266;7.402;2022-10-19T04:41:03;100192.31;;;14.87;100.00
43147;BME280;28752;48.266;7.402;2022-10-19T04:43:29;100187.00;;;14.87;100.00
43147;BME280;28752;48.266;7.402;2022-10-19T04:45:54;100188.13;;;14.84;100.00
43147;BME280;28752;48.266;7.402;2022-10-19T04:48:20;100190.66;;;14.86;100.00
43147;BME280;28752;48.266;7.402;2022-10-19T04:50:45;100184.09;;;14.80;99.54
43147;BME280;28752;48.266;7.402;2022-10-19T04:53:11;100186.19;;;14.68;99.67
43147;BME280;28752;48.266;7.402;2022-10-19T04:55:40;100190.44;;;14.61;100.00
43147;BME280;28752;48.266;7.402;2022-10-19T04:58:06;100175.53;;;14.68;99.52
43147;BME280;28752;48.266;7.402;2022-10-19T05:00:32;100195.69;;;14.71;100.00
43147;BME280;28752;48.266;7.402;2022-10-19T05:02:57;100192.41;;;14.77;99.62
43147;BME280;28752;48.266;7.402;2022-10-19T05:05:23;100193.78;;;14.81;98.94
43147;BME280;28752;48.266;7.402;2022-10-19T05:07:49;100176.94;;;14.81;99.23
43147;BME280;28752;48.266;7.402;2022-10-19T05:10:15;100196.06;;;14.94;97.25
43147;BME280;28752;48.266;7.402;2022-10-19T05:12:40;100183.72;;;14.75;98.26
43147;BME280;28752;48.266;7.402;2022-10-19T05:15:06;100193.56;;;14.74;98.27
43147;BME280;28752;48.266;7.402;2022-10-19T05:17:32;100202.84;;;14.70;98.41
43147;BME280;28752;48.266;7.402;2022-10-19T05:19:57;100192.56;;;14.75;98.34
43147;BME280;28752;48.266;7.402;2022-10-19T05:22:23;100179.03;;;14.69;98.85
43147;BME280;28752;48.266;7.402;2022-10-19T05:24:48;100177.13;;;14.61;99.02
43147;BME280;28752;48.266;7.402;2022-10-19T05:27:14;100193.25;;;14.60;99.97
43147;BME280;28752;48.266;7.402;2022-10-19T05:29:39;100186.00;;;14.52;100.00
43147;BME280;28752;48.266;7.402;2022-10-19T05:32:04;100189.03;;;14.57;100.00
43147;BME280;28752;48.266;7.402;2022-10-19T05:34:30;100193.69;;;14.55;100.00
43147;BME280;28752;48.266;7.402;2022-10-19T05:36:55;100183.56;;;14.58;100.00
43147;BME280;28752;48.266;7.402;2022-10-19T05:39:21;100182.50;;;14.69;100.00
43147;BME280;28752;48.266;7.402;2022-10-19T05:41:47;100181.69;;;14.69;100.00
43147;BME280;28752;48.266;7.402;2022-10-19T05:44:18;100187.53;;;14.72;100.00
43147;BME280;28752;48.266;7.402;2022-10-19T05:46:44;100188.44;;;14.81;100.00
43147;BME280;28752;48.266;7.402;2022-10-19T05:49:11;100178.41;;;14.75;100.00
43147;BME280;28752;48.266;7.402;2022-10-19T05:51:37;100176.66;;;14.66;100.00
43147;BME280;28752;48.266;7.402;2022-10-19T05:54:03;100180.41;;;14.73;100.00
43147;BME280;28752;48.266;7.402;2022-10-19T05:56:30;100179.38;;;14.74;100.00
43147;BME280;28752;48.266;7.402;2022-10-19T05:58:57;100176.09;;;14.80;100.00
43147;BME280;28752;48.266;7.402;2022-10-19T06:01:24;100169.63;;;14.83;100.00
43147;BME280;28752;48.266;7.402;2022-10-19T06:03:52;100177.16;;;14.87;100.00
43147;BME280;28752;48.266;7.402;2022-10-19T06:06:18;100170.84;;;14.88;100.00
43147;BME280;28752;48.266;7.402;2022-10-19T06:08:45;100175.47;;;14.86;100.00
43147;BME280;28752;48.266;7.402;2022-10-19T06:13:41;100175.56;;;14.95;100.00
43147;BME280;28752;48.266;7.402;2022-10-19T06:16:08;100181.19;;;14.91;100.00
43147;BME280;28752;48.266;7.402;2022-10-19T06:18:34;100180.09;;;15.02;100.00
43147;BME280;28752;48.266;7.402;2022-10-19T06:21:04;100170.53;;;14.91;100.00
43147;BME280;28752;48.266;7.402;2022-10-19T06:23:31;100188.09;;;15.02;100.00
43147;BME280;28752;48.266;7.402;2022-10-19T06:25:57;100192.66;;;15.10;100.00
43147;BME280;28752;48.266;7.402;2022-10-19T06:28:22;100192.66;;;15.10;100.00
43147;BME280;28752;48.266;7.402;2022-10-19T06:30:48;100187.16;;;15.12;100.00
43147;BME280;28752;48.266;7.402;2022-10-19T06:33:13;100182.91;;;15.01;100.00
43147;BME280;28752;48.266;7.402;2022-10-19T06:35:38;100182.59;;;15.04;100.00
43147;BME280;28752;48.266;7.402;2022-10-19T06:38:06;100176.75;;;15.00;100.00
43147;BME280;28752;48.266;7.402;2022-10-19T06:40:32;100176.44;;;15.03;100.00
43147;BME280;28752;48.266;7.402;2022-10-19T06:42:58;100182.09;;;15.00;100.00
43147;BME280;28752;48.266;7.402;2022-10-19T06:45:23;100186.84;;;15.15;100.00
43147;BME280;28752;48.266;7.402;2022-10-19T06:47:49;100175.66;;;15.11;100.00
43147;BME280;28752;48.266;7.402;2022-10-19T06:50:14;100183.50;;;15.13;100.00
43147;BME280;28752;48.266;7.402;2022-10-19T06:52:40;100172.53;;;15.16;100.00
43147;BME280;28752;48.266;7.402;2022-10-19T06:55:05;100189.00;;;15.11;100.00
43147;BME280;28752;48.266;7.402;2022-10-19T06:57:31;100181.31;;;15.08;100.00
43147;BME280;28752;48.266;7.402;2022-10-19T06:59:56;100177.84;;;15.16;100.00
43147;BME280;28752;48.266;7.402;2022-10-19T07:02:22;100186.16;;;15.13;100.00
43147;BME280;28752;48.266;7.402;2022-10-19T07:04:48;100177.47;;;15.10;100.00
43147;BME280;28752;48.266;7.402;2022-10-19T07:07:13;100181.25;;;15.26;100.00
43147;BME280;28752;48.266;7.402;2022-10-19T07:09:39;100174.50;;;15.14;100.00
43147;BME280;28752;48.266;7.402;2022-10-19T07:12:04;100188.41;;;15.25;100.00
43147;BME280;28752;48.266;7.402;2022-10-19T07:14:30;100189.44;;;15.33;100.00
43147;BME280;28752;48.266;7.402;2022-10-19T07:16:56;100195.31;;;15.36;100.00
43147;BME280;28752;48.266;7.402;2022-10-19T07:19:25;100201.34;;;15.38;100.00
43147;BME280;28752;48.266;7.402;2022-10-19T07:21:51;100192.00;;;15.42;100.00
43147;BME280;28752;48.266;7.402;2022-10-19T07:24:17;100196.69;;;15.49;100.00
43147;BME280;28752;48.266;7.402;2022-10-19T07:26:42;100200.00;;;15.42;100.00
43147;BME280;28752;48.266;7.402;2022-10-19T07:29:08;100191.00;;;15.43;100.00
43147;BME280;28752;48.266;7.402;2022-10-19T07:31:33;100198.03;;;15.44;100.00
43147;BME280;28752;48.266;7.402;2022-10-19T07:34:01;100200.41;;;15.56;100.00
43147;BME280;28752;48.266;7.402;2022-10-19T07:36:29;100196.09;;;15.55;100.00
43147;BME280;28752;48.266;7.402;2022-10-19T07:38:54;100196.75;;;15.57;100.00
43147;BME280;28752;48.266;7.402;2022-10-19T07:41:22;100199.09;;;15.60;100.00
43147;BME280;28752;48.266;7.402;2022-10-19T07:43:49;100200.97;;;15.68;100.00
43147;BME280;28752;48.266;7.402;2022-10-19T07:46:20;100199.72;;;15.80;100.00
43147;BME280;28752;48.266;7.402;2022-10-19T07:48:47;100198.25;;;15.86;100.00
43147;BME280;28752;48.266;7.402;2022-10-19T07:51:14;100197.75;;;15.82;100.00
43147;BME280;28752;48.266;7.402;2022-10-19T07:53:40;100190.25;;;15.94;99.78
43147;BME280;28752;48.266;7.402;2022-10-19T07:56:11;100201.47;;;15.97;100.00
43147;BME280;28752;48.266;7.402;2022-10-19T07:58:36;100204.63;;;15.93;100.00
43147;BME280;28752;48.266;7.402;2022-10-19T08:01:05;100204.13;;;15.97;100.00
43147;BME280;28752;48.266;7.402;2022-10-19T08:03:32;100198.97;;;16.04;99.63
43147;BME280;28752;48.266;7.402;2022-10-19T08:05:59;100206.31;;;16.10;98.61
43147;BME280;28752;48.266;7.402;2022-10-19T08:08:25;100196.66;;;16.17;98.28
43147;BME280;28752;48.266;7.402;2022-10-19T08:10:50;100195.50;;;16.20;97.80
43147;BME280;28752;48.266;7.402;2022-10-19T08:13:15;100194.53;;;16.38;96.79
43147;BME280;28752;48.266;7.402;2022-10-19T08:15:41;100192.03;;;16.28;97.46
43147;BME280;28752;48.266;7.402;2022-10-19T08:18:06;100201.88;;;16.36;96.78
43147;BME280;28752;48.266;7.402;2022-10-19T08:20:31;100201.03;;;16.35;96.93
43147;BME280;28752;48.266;7.402;2022-10-19T08:22:57;100198.72;;;16.40;96.70
43147;BME280;28752;48.266;7.402;2022-10-19T08:25:22;100195.69;;;16.51;95.73
43147;BME280;28752;48.266;7.402;2022-10-19T08:27:48;100192.22;;;16.51;96.06
43147;BME280;28752;48.266;7.402;2022-10-19T08:30:13;100189.72;;;16.66;95.50
43147;BME280;28752;48.266;7.402;2022-10-19T08:32:38;100192.22;;;16.67;95.17
43147;BME280;28752;48.266;7.402;2022-10-19T08:35:04;100186.00;;;16.67;95.10
43147;BME280;28752;48.266;7.402;2022-10-19T08:37:30;100174.16;;;16.69;95.23
43147;BME280;28752;48.266;7.402;2022-10-19T08:39:55;100172.16;;;16.72;95.18
43147;BME280;28752;48.266;7.402;2022-10-19T08:42:31;100176.00;;;16.61;95.85
43147;BME280;28752;48.266;7.402;2022-10-19T08:45:33;100166.31;;;16.68;96.19
43147;BME280;28752;48.266;7.402;2022-10-19T08:48:26;100177.00;;;16.84;94.83
43147;BME280;28752;48.266;7.402;2022-10-19T08:50:53;100186.56;;;16.87;94.39
43147;BME280;28752;48.266;7.402;2022-10-19T08:53:34;100172.34;;;16.86;94.24
43147;BME280;28752;48.266;7.402;2022-10-19T09:09:40;100162.59;;;17.18;92.91
43147;BME280;28752;48.266;7.402;2022-10-19T09:12:10;100154.03;;;17.23;92.23
43147;BME280;28752;48.266;7.402;2022-10-19T09:14:58;100137.41;;;16.96;92.75
43147;BME280;28752;48.266;7.402;2022-10-19T09:17:25;100148.25;;;17.03;93.51
43147;BME280;28752;48.266;7.402;2022-10-19T09:19:51;100157.94;;;16.96;94.56
43147;BME280;28752;48.266;7.402;2022-10-19T09:22:24;100147.94;;;16.90;94.96
43147;BME280;28752;48.266;7.402;2022-10-19T09:24:53;100153.59;;;16.78;95.26
43147;BME280;28752;48.266;7.402;2022-10-19T09:27:40;100146.94;;;16.82;95.46
43147;BME280;28752;48.266;7.402;2022-10-19T09:30:21;100154.28;;;16.97;94.85
43147;BME280;28752;48.266;7.402;2022-10-19T09:32:50;100157.44;;;17.00;94.74
43147;BME280;28752;48.266;7.402;2022-10-19T09:35:27;100160.94;;;17.09;93.70
43147;BME280;28752;48.266;7.402;2022-10-19T09:37:55;100158.28;;;16.93;94.34
43147;BME280;28752;48.266;7.402;2022-10-19T09:40:24;100164.16;;;16.88;94.97
43147;BME280;28752;48.266;7.402;2022-10-19T09:42:50;100150.09;;;16.78;95.20
43147;BME280;28752;48.266;7.402;2022-10-19T09:45:35;100159.28;;;17.00;94.66
43147;BME280;28752;48.266;7.402;2022-10-19T09:48:16;100158.59;;;17.06;93.86
43147;BME280;28752;48.266;7.402;2022-10-19T09:50:45;100138.53;;;17.02;93.27
43147;BME280;28752;48.266;7.402;2022-10-19T09:53:19;100145.88;;;17.16;92.94
43147;BME280;28752;48.266;7.402;2022-10-19T09:58:25;100152.00;;;17.33;91.64
43147;BME280;28752;48.266;7.402;2022-10-19T10:00:52;100147.31;;;17.35;91.27
43147;BME280;28752;48.266;7.402;2022-10-19T10:05:47;100140.72;;;17.54;90.56
43147;BME280;28752;48.266;7.402;2022-10-19T10:08:19;100137.88;;;17.56;89.49
43147;BME280;28752;48.266;7.402;2022-10-19T10:13:36;100139.75;;;17.47;88.83
43147;BME280;28752;48.266;7.402;2022-10-19T10:16:03;100138.41;;;17.51;89.82
43147;BME280;28752;48.266;7.402;2022-10-19T10:18:30;100119.13;;;17.56;88.88
43147;BME280;28752;48.266;7.402;2022-10-19T10:23:28;100134.84;;;17.67;89.07
43147;BME280;28752;48.266;7.402;2022-10-19T10:25:57;100139.22;;;17.52;90.14
43147;BME280;28752;48.266;7.402;2022-10-19T10:28:25;100142.59;;;17.54;90.28
43147;BME280;28752;48.266;7.402;2022-10-19T10:31:09;100135.78;;;17.35;91.04
43147;BME280;28752;48.266;7.402;2022-10-19T10:33:36;100135.59;;;17.45;90.95
43147;BME280;28752;48.266;7.402;2022-10-19T10:36:08;100127.50;;;17.53;90.14
43147;BME280;28752;48.266;7.402;2022-10-19T10:38:44;100131.81;;;17.70;89.75
43147;BME280;28752;48.266;7.402;2022-10-19T10:41:13;100115.50;;;17.80;88.92
43147;BME280;28752;48.266;7.402;2022-10-19T10:44:00;100122.66;;;17.88;88.35
43147;BME280;28752;48.266;7.402;2022-10-19T10:46:54;100100.56;;;17.86;86.91
43147;BME280;28752;48.266;7.402;2022-10-19T10:49:31;100108.94;;;17.91;85.96
43147;BME280;28752;48.266;7.402;2022-10-19T10:52:13;100105.53;;;17.97;85.58
43147;BME280;28752;48.266;7.402;2022-10-19T10:54:42;100106.72;;;17.94;85.46
43147;BME280;28752;48.266;7.402;2022-10-19T10:57:22;100103.06;;;17.87;84.78
43147;BME280;28752;48.266;7.402;2022-10-19T11:05:07;100092.03;;;17.90;85.50
43147;BME280;28752;48.266;7.402;2022-10-19T11:07:35;100086.91;;;17.72;87.17
43147;BME280;28752;48.266;7.402;2022-10-19T11:15:50;100079.19;;;18.09;85.40
43147;BME280;28752;48.266;7.402;2022-10-19T11:18:29;100077.72;;;18.21;83.45
43147;BME280;28752;48.266;7.402;2022-10-19T11:21:37;100064.88;;;18.17;84.16
43147;BME280;28752;48.266;7.402;2022-10-19T11:24:34;100062.84;;;18.19;84.43
43147;BME280;28752;48.266;7.402;2022-10-19T11:35:58;100050.88;;;18.29;84.34
43147;BME280;28752;48.266;7.402;2022-10-19T11:57:33;100025.44;;;18.25;83.22
43147;BME280;28752;48.266;7.402;2022-10-19T12:00:09;100011.78;;;18.35;83.15
43147;BME280;28752;48.266;7.402;2022-10-19T12:05:12;100013.28;;;18.53;81.81
43147;BME280;28752;48.266;7.402;2022-10-19T12:10:44;100001.34;;;18.55;81.27
43147;BME280;28752;48.266;7.402;2022-10-19T12:13:14;99998.47;;;18.57;80.60
43147;BME280;28752;48.266;7.402;2022-10-19T12:15:43;99990.31;;;18.35;81.16
43147;BME280;28752;48.266;7.402;2022-10-19T12:20:58;99977.03;;;18.42;81.10
43147;BME280;28752;48.266;7.402;2022-10-19T12:23:36;99978.88;;;18.41;80.93
43147;BME280;28752;48.266;7.402;2022-10-19T12:26:05;99974.91;;;18.37;81.29
43147;BME280;28752;48.266;7.402;2022-10-19T12:28:34;99968.53;;;18.53;81.29
43147;BME280;28752;48.266;7.402;2022-10-19T12:31:01;99964.28;;;18.74;80.21
43147;BME280;28752;48.266;7.402;2022-10-19T12:47:28;99928.09;;;18.85;77.98
43147;BME280;28752;48.266;7.402;2022-10-19T12:49:54;99939.94;;;18.90;78.32
43147;BME280;28752;48.266;7.402;2022-10-19T12:52:46;99930.13;;;18.97;78.24
43147;BME280;28752;48.266;7.402;2022-10-19T12:57:46;99936.16;;;18.70;79.17
43147;BME280;28752;48.266;7.402;2022-10-19T13:00:22;99930.22;;;18.74;78.84
43147;BME280;28752;48.266;7.402;2022-10-19T13:03:17;99935.97;;;18.71;78.75
43147;BME280;28752;48.266;7.402;2022-10-19T13:05:56;99920.13;;;18.76;78.71
43147;BME280;28752;48.266;7.402;2022-10-19T13:08:29;99918.47;;;18.90;78.08
43147;BME280;28752;48.266;7.402;2022-10-19T13:11:14;99908.31;;;18.86;78.45
43147;BME280;28752;48.266;7.402;2022-10-19T13:19:24;99909.34;;;18.55;80.29
43147;BME280;28752;48.266;7.402;2022-10-19T13:21:50;99907.88;;;18.52;80.07
43147;BME280;28752;48.266;7.402;2022-10-19T13:35:20;99901.31;;;18.25;82.12
43147;BME280;28752;48.266;7.402;2022-10-19T13:40:54;99890.31;;;18.20;82.51
43147;BME280;28752;48.266;7.402;2022-10-19T13:43:23;99881.72;;;18.39;82.06
43147;BME280;28752;48.266;7.402;2022-10-19T13:51:34;99886.03;;;18.55;80.16
43147;BME280;28752;48.266;7.402;2022-10-19T13:54:30;99882.91;;;18.52;81.29
43147;BME280;28752;48.266;7.402;2022-10-19T14:00:08;99881.28;;;18.36;81.55
43147;BME280;28752;48.266;7.402;2022-10-19T14:13:40;99868.13;;;18.11;81.66
43147;BME280;28752;48.266;7.402;2022-10-19T14:16:06;99859.19;;;18.04;82.13
43147;BME280;28752;48.266;7.402;2022-10-19T14:18:34;99857.41;;;18.11;82.29
43147;BME280;28752;48.266;7.402;2022-10-19T14:21:06;99848.53;;;17.96;83.04
43147;BME280;28752;48.266;7.402;2022-10-19T14:23:37;99848.53;;;17.96;83.54
43147;BME280;28752;48.266;7.402;2022-10-19T14:28:36;99853.16;;;18.02;83.37
43147;BME280;28752;48.266;7.402;2022-10-19T14:31:04;99845.03;;;18.10;83.71
43147;BME280;28752;48.266;7.402;2022-10-19T14:33:35;99846.50;;;18.27;83.19
43147;BME280;28752;48.266;7.402;2022-10-19T14:36:02;99845.19;;;18.53;81.41
43147;BME280;28752;48.266;7.402;2022-10-19T14:38:37;99861.63;;;18.65;81.38
43147;BME280;28752;48.266;7.402;2022-10-19T14:41:05;99857.28;;;18.64;80.67
43147;BME280;28752;48.266;7.402;2022-10-19T14:43:41;99843.69;;;18.51;81.37
43147;BME280;28752;48.266;7.402;2022-10-19T14:48:37;99844.13;;;18.33;83.13
43147;BME280;28752;48.266;7.402;2022-10-19T14:51:13;99851.69;;;18.29;82.97
43147;BME280;28752;48.266;7.402;2022-10-19T14:53:50;99844.66;;;18.28;83.52
43147;BME280;28752;48.266;7.402;2022-10-19T14:56:50;99847.06;;;18.23;83.75
43147;BME280;28752;48.266;7.402;2022-10-19T14:59:26;99837.00;;;18.10;84.21
43147;BME280;28752;48.266;7.402;2022-10-19T15:01:56;99840.25;;;18.05;85.07
43147;BME280;28752;48.266;7.402;2022-10-19T15:04:29;99840.81;;;18.01;85.78
43147;BME280;28752;48.266;7.402;2022-10-19T15:06:57;99835.59;;;18.14;85.09
43147;BME280;28752;48.266;7.402;2022-10-19T15:09:28;99848.53;;;17.96;86.58
43147;BME280;28752;48.266;7.402;2022-10-19T15:12:03;99841.69;;;17.93;86.06
43147;BME280;28752;48.266;7.402;2022-10-19T15:14:30;99844.13;;;18.03;85.99
43147;BME280;28752;48.266;7.402;2022-10-19T15:17:03;99842.94;;;18.05;86.04
43147;BME280;28752;48.266;7.402;2022-10-19T15:19:33;99822.56;;;18.11;85.87
43147;BME280;28752;48.266;7.402;2022-10-19T15:22:22;99832.66;;;18.24;85.14